createdAt,value
2022-09-27T00:00:29.245Z,12.30
2022-09-27T00:05:32.284Z,12.40
2022-09-27T00:10:35.650Z,12.40
2022-09-27T00:15:40.058Z,12.40
2022-09-27T00:20:43.211Z,12.50
2022-09-27T00:25:55.496Z,12.40
2022-09-27T00:31:00.413Z,12.30
2022-09-27T00:36:05.370Z,12.30
2022-09-27T00:41:14.666Z,12.20
2022-09-27T00:46:26.535Z,12.30
2022-09-27T00:51:30.940Z,12.20
2022-09-27T00:56:35.662Z,12.10
2022-09-27T01:01:40.590Z,12.30
2022-09-27T01:06:43.904Z,12.20
2022-09-27T01:11:51.168Z,12.30
2022-09-27T01:17:01.622Z,12.30
2022-09-27T01:22:06.926Z,12.20
2022-09-27T01:27:37.375Z,12.20
2022-09-27T01:32:50.663Z,12.20
2022-09-27T01:38:05.525Z,12.20
2022-09-27T01:43:16.705Z,12.10
2022-09-27T01:48:23.774Z,12.20
2022-09-27T01:53:33.894Z,12.20
2022-09-27T01:59:08.303Z,12.30
2022-09-27T02:04:19.218Z,12.40
2022-09-27T02:09:46.322Z,12.50
2022-09-27T02:14:57.355Z,12.30
2022-09-27T02:20:12.958Z,12.40
2022-09-27T02:25:26.332Z,12.40
2022-09-27T02:30:32.210Z,12.40
2022-09-27T02:35:46.370Z,12.30
2022-09-27T02:40:49.676Z,12.40
2022-09-27T02:46:03.521Z,12.40
2022-09-27T02:51:18.340Z,12.40
2022-09-27T02:56:31.445Z,12.30
2022-09-27T03:02:04.021Z,12.50
2022-09-27T03:07:17.572Z,12.30
2022-09-27T03:12:25.830Z,12.30
2022-09-27T03:17:28.980Z,12.30
2022-09-27T03:23:08.543Z,12.40
2022-09-27T03:28:11.521Z,12.30
2022-09-27T03:33:15.895Z,12.10
2022-09-27T03:38:27.128Z,12.10
2022-09-27T03:43:30.508Z,12.00
2022-09-27T03:48:37.904Z,11.90
2022-09-27T03:53:43.467Z,11.60
2022-09-27T03:58:47.613Z,11.70
2022-09-27T04:03:51.506Z,11.50
2022-09-27T04:09:04.906Z,11.70
2022-09-27T04:14:26.091Z,11.60
2022-09-27T04:19:47.825Z,11.60
2022-09-27T04:24:52.930Z,11.50
2022-09-27T04:30:03.707Z,11.40
2022-09-27T04:35:44.076Z,11.40
2022-09-27T04:40:49.193Z,11.50
2022-09-27T04:45:52.897Z,11.60
2022-09-27T04:50:57.754Z,11.60
2022-09-27T04:56:06.801Z,11.60
2022-09-27T05:01:11.334Z,11.50
2022-09-27T05:06:32.495Z,11.50
2022-09-27T05:11:43.445Z,11.30
2022-09-27T05:16:53.303Z,11.30
2022-09-27T05:22:19.353Z,11.30
2022-09-27T05:27:24.137Z,11.40
2022-09-27T05:32:28.188Z,11.30
2022-09-27T05:38:10.012Z,11.30
2022-09-27T05:43:16.466Z,11.40
2022-09-27T05:48:20.062Z,11.20
2022-09-27T05:53:32.483Z,11.20
2022-09-27T05:58:38.291Z,11.30
2022-09-27T06:03:52.261Z,11.40
2022-09-27T06:09:29.429Z,11.40
2022-09-27T06:14:36.011Z,11.40
2022-09-27T06:19:47.855Z,11.40
2022-09-27T06:24:52.142Z,11.40
2022-09-27T06:30:01.089Z,11.50
2022-09-27T06:35:25.793Z,11.60
2022-09-27T06:40:29.828Z,11.70
2022-09-27T06:45:48.463Z,11.70
2022-09-27T06:51:10.830Z,11.70
2022-09-27T06:56:14.407Z,11.90
2022-09-27T07:01:30.223Z,11.70
2022-09-27T07:06:53.645Z,11.70
2022-09-27T07:12:00.250Z,11.60
2022-09-27T07:17:04.970Z,11.50
2022-09-27T07:22:13.378Z,11.50
2022-09-27T07:27:19.662Z,11.60
2022-09-27T07:32:24.849Z,11.80
2022-09-27T07:37:32.560Z,11.90
2022-09-27T07:42:41.176Z,12.10
2022-09-27T07:47:46.246Z,12.20
2022-09-27T07:53:20.604Z,12.30
2022-09-27T07:58:33.537Z,12.20
2022-09-27T08:03:42.369Z,12.20
2022-09-27T08:08:47.464Z,12.20
2022-09-27T08:13:54.498Z,12.20
2022-09-27T08:19:02.866Z,12.30
2022-09-27T08:24:24.701Z,12.40
2022-09-27T08:29:42.168Z,12.60
2022-09-27T08:34:47.004Z,12.50
2022-09-27T08:39:50.286Z,12.50
2022-09-27T08:45:03.818Z,12.40
2022-09-27T08:50:22.701Z,12.60
2022-09-27T08:55:32.473Z,12.80
2022-09-27T09:00:36.218Z,13.00
2022-09-27T09:05:41.430Z,13.00
2022-09-27T09:11:10.263Z,13.40
2022-09-27T09:16:22.745Z,13.50
2022-09-27T09:21:39.198Z,13.50
2022-09-27T09:26:48.627Z,13.60
2022-09-27T09:32:02.261Z,13.50
2022-09-27T09:37:15.856Z,13.40
2022-09-27T09:42:25.399Z,13.60
2022-09-27T09:47:36.947Z,14.00
2022-09-27T09:52:50.007Z,14.30
2022-09-27T09:58:01.008Z,14.20
2022-09-27T10:03:08.993Z,14.30
2022-09-27T10:08:19.523Z,14.30
2022-09-27T10:13:26.920Z,14.20
2022-09-27T10:18:38.348Z,14.50
2022-09-27T10:24:16.791Z,14.50
2022-09-27T10:29:40.121Z,14.50
2022-09-27T10:34:52.467Z,14.70
2022-09-27T10:39:58.478Z,15.00
2022-09-27T10:45:25.623Z,14.80
2022-09-27T10:50:59.122Z,14.70
2022-09-27T10:56:24.244Z,15.00
2022-09-27T11:01:39.867Z,15.00
2022-09-27T11:07:07.519Z,15.70
2022-09-27T11:12:13.599Z,15.70
2022-09-27T11:17:22.163Z,15.90
2022-09-27T11:22:48.277Z,16.70
2022-09-27T11:28:03.618Z,17.00
2022-09-27T11:33:35.605Z,16.80
2022-09-27T11:38:55.753Z,16.50
2022-09-27T11:44:29.896Z,15.60
2022-09-27T11:49:58.608Z,14.20
2022-09-27T11:55:23.998Z,13.10
2022-09-27T12:00:40.554Z,12.30
2022-09-27T12:06:07.029Z,12.00
2022-09-27T12:11:16.595Z,11.90
2022-09-27T12:16:22.875Z,12.30
2022-09-27T12:21:30.465Z,12.70
2022-09-27T12:26:37.675Z,12.90
2022-09-27T12:31:47.435Z,12.90
2022-09-27T12:36:59.691Z,12.90
2022-09-27T12:42:07.938Z,13.30
2022-09-27T12:47:48.806Z,13.30
2022-09-27T12:53:04.402Z,13.50
2022-09-27T12:58:40.571Z,14.10
2022-09-27T13:04:03.569Z,14.10
2022-09-27T13:09:28.135Z,13.60
2022-09-27T13:14:39.168Z,13.30
2022-09-27T13:19:45.614Z,13.10
2022-09-27T13:24:51.844Z,13.00
2022-09-27T13:30:45.724Z,13.20
2022-09-27T13:41:21.355Z,13.60
2022-09-27T13:46:36.519Z,14.30
2022-09-27T13:51:46.631Z,14.90
2022-09-27T13:56:54.397Z,15.50
2022-09-27T14:02:12.018Z,15.20
2022-09-27T14:07:19.091Z,14.60
2022-09-27T14:12:28.752Z,14.20
2022-09-27T14:17:33.173Z,13.90
2022-09-27T14:22:41.082Z,13.50
2022-09-27T14:27:48.768Z,13.50
2022-09-27T14:33:01.941Z,14.40
2022-09-27T14:38:38.074Z,14.50
2022-09-27T14:43:51.591Z,13.70
2022-09-27T14:48:55.941Z,13.00
2022-09-27T14:54:05.629Z,12.80
2022-09-27T14:59:16.347Z,12.80
2022-09-27T15:04:21.921Z,12.60
2022-09-27T15:09:30.899Z,12.50
2022-09-27T15:14:42.426Z,12.40
2022-09-27T15:20:00.310Z,12.30
2022-09-27T15:25:19.433Z,12.20
2022-09-27T15:30:30.144Z,12.10
2022-09-27T15:35:35.687Z,12.20
2022-09-27T15:41:05.591Z,12.30
2022-09-27T15:46:34.866Z,12.20
2022-09-27T15:51:40.493Z,12.20
2022-09-27T15:56:44.824Z,12.10
2022-09-27T16:01:51.324Z,12.00
2022-09-27T16:06:54.812Z,11.90
2022-09-27T16:11:57.965Z,11.60
2022-09-27T16:17:03.111Z,11.40
2022-09-27T16:22:06.497Z,11.40
2022-09-27T16:27:10.718Z,11.20
2022-09-27T16:32:15.632Z,11.10
2022-09-27T16:37:18.963Z,11.00
2022-09-27T16:42:22.257Z,11.00
2022-09-27T16:47:26.912Z,11.10
2022-09-27T16:52:34.215Z,11.00
2022-09-27T16:57:38.423Z,10.80
2022-09-27T17:02:48.477Z,10.70
2022-09-27T17:07:52.493Z,10.50
2022-09-27T17:12:58.122Z,10.40
2022-09-27T17:18:03.161Z,10.20
2022-09-27T17:23:06.353Z,9.90
2022-09-27T17:28:09.603Z,9.70
2022-09-27T17:33:14.423Z,9.50
2022-09-27T17:38:17.849Z,9.30
2022-09-27T17:43:20.960Z,9.10
2022-09-27T17:48:44.137Z,9.10
2022-09-27T17:53:48.005Z,8.90
2022-09-27T18:06:27.587Z,8.80
2022-09-27T18:11:30.777Z,8.70
2022-09-27T18:16:39.145Z,8.60
2022-09-27T18:21:44.543Z,8.70
2022-09-27T18:26:48.929Z,8.80
2022-09-27T18:31:52.300Z,8.80
2022-09-27T18:36:57.379Z,9.00
2022-09-27T18:42:00.703Z,9.10
2022-09-27T18:47:03.947Z,9.00
2022-09-27T18:52:08.685Z,9.30
2022-09-27T18:57:11.865Z,9.10
2022-09-27T19:02:15.087Z,9.00
2022-09-27T20:07:45.895Z,7.80
2022-09-27T20:12:51.659Z,7.50
2022-09-27T20:18:09.363Z,7.50
2022-09-27T20:23:20.104Z,7.50
2022-09-27T20:28:23.453Z,7.40
2022-09-27T20:33:42.379Z,7.50
2022-09-27T20:38:48.254Z,7.70
2022-09-27T20:43:54.585Z,8.00
2022-09-27T20:48:59.685Z,8.20
2022-09-27T20:54:06.867Z,8.30
2022-09-27T20:59:15.901Z,8.40
2022-09-27T21:04:21.531Z,8.40
2022-09-27T21:09:26.826Z,8.50
2022-09-27T21:14:30.481Z,8.50
2022-09-27T21:19:35.020Z,8.50
2022-09-27T21:24:40.066Z,8.60
2022-09-27T21:29:43.707Z,8.60
2022-09-27T21:34:47.338Z,8.70
2022-09-27T21:39:52.725Z,8.80
2022-09-27T21:44:56.447Z,8.70
2022-09-27T21:50:00.331Z,8.70
2022-09-27T21:55:06.507Z,8.60
2022-09-27T22:00:10.971Z,8.40
2022-09-27T22:05:14.860Z,8.30
2022-09-27T22:10:19.457Z,8.20
2022-09-27T22:15:22.763Z,8.00
2022-09-27T22:20:27.752Z,7.80
2022-09-27T22:25:33.052Z,7.60
2022-09-27T22:30:36.700Z,7.60
2022-09-27T22:35:45.719Z,7.50
2022-09-27T22:40:56.369Z,7.50
2022-09-27T22:46:02.911Z,7.90
2022-09-27T22:51:07.986Z,8.00
2022-09-27T22:56:14.826Z,8.10
2022-09-27T23:01:20.509Z,8.30
2022-09-27T23:06:24.069Z,8.40
2022-09-27T23:11:30.601Z,8.50
2022-09-27T23:16:35.147Z,8.50
2022-09-27T23:21:38.351Z,8.50
2022-09-27T23:26:42.911Z,8.60
2022-09-27T23:31:46.165Z,8.60
2022-09-27T23:36:49.673Z,8.60
2022-09-27T23:41:54.750Z,8.60
2022-09-27T23:47:00.514Z,8.60
2022-09-27T23:52:04.271Z,8.70
2022-09-27T23:57:08.970Z,8.70
